Time;durP1;ratioP1;P1;durP2;ratioP2;P2;SDS_P1;SDS_P2;PMS_P1;PMS_P2;Temp;Humidity;BMP_temperature;BMP_pressure;BME280_temperature;BME280_humidity;BME280_pressure;Samples;Min_cycle;Max_cycle;Signal;HPM_P1;HPM_P2
2023/02/15 00:00:07;;;;;;;28.95;19.85;;;;;;;5.71;100.00;102816.75;5078720;28;20040;-65
2023/02/15 00:02:35;;;;;;;28.00;18.38;;;;;;;5.72;100.00;102821.09;5100191;27;20066;-64
2023/02/15 00:05:03;;;;;;;27.85;18.80;;;;;;;5.75;100.00;102823.47;5111838;28;20051;-63
2023/02/15 00:07:31;;;;;;;27.17;19.00;;;;;;;5.74;100.00;102816.34;5105019;28;20044;-61
2023/02/15 00:09:59;;;;;;;28.30;18.27;;;;;;;5.76;100.00;102814.31;5111142;28;20048;-61
2023/02/15 00:12:26;;;;;;;26.70;18.92;;;;;;;5.76;100.00;102811.59;5100160;28;20407;-64
2023/02/15 00:14:54;;;;;;;27.15;18.92;;;;;;;5.73;99.90;102814.69;5096347;28;20048;-64
2023/02/15 00:17:22;;;;;;;29.80;19.15;;;;;;;5.69;99.75;102813.38;5124305;28;20040;-58
2023/02/15 00:19:50;;;;;;;27.95;18.08;;;;;;;5.67;100.00;102810.00;5113307;28;20052;-61
2023/02/15 00:22:17;;;;;;;26.60;18.45;;;;;;;5.65;100.00;102803.94;5094715;28;20054;-65
2023/02/15 00:24:45;;;;;;;26.52;18.70;;;;;;;5.63;100.00;102797.88;5094713;28;20443;-64
2023/02/15 00:27:13;;;;;;;25.48;18.48;;;;;;;5.57;99.98;102804.88;5103204;28;20040;-64
2023/02/15 00:29:40;;;;;;;25.25;17.98;;;;;;;5.53;99.74;102808.97;5136922;27;20406;-64
2023/02/15 00:32:08;;;;;;;28.00;18.95;;;;;;;5.49;99.36;102807.69;5121388;27;20048;-64
2023/02/15 00:34:36;;;;;;;25.88;17.83;;;;;;;5.46;99.52;102802.63;5100295;28;20425;-63
2023/02/15 00:37:03;;;;;;;29.83;19.83;;;;;;;5.42;99.88;102796.75;5102323;28;20082;-64
2023/02/15 00:39:31;;;;;;;26.60;19.40;;;;;;;5.40;99.69;102788.00;5090325;28;20127;-64
2023/02/15 00:41:59;;;;;;;29.85;18.20;;;;;;;5.39;99.72;102790.88;5097811;28;20052;-63
2023/02/15 00:44:26;;;;;;;25.33;18.55;;;;;;;5.37;99.85;102777.56;5110720;28;20126;-64
2023/02/15 00:46:56;;;;;;;27.55;18.15;;;;;;;5.40;100.00;102779.88;5106245;28;20063;-64
2023/02/15 00:49:24;;;;;;;26.55;18.67;;;;;;;5.41;99.78;102780.72;5104778;28;20399;-64
2023/02/15 00:51:52;;;;;;;26.67;18.52;;;;;;;5.41;99.54;102778.00;5115971;28;20515;-64
2023/02/15 00:54:19;;;;;;;24.70;17.48;;;;;;;5.39;99.61;102775.50;5098945;28;20437;-64
2023/02/15 00:56:48;;;;;;;25.80;17.83;;;;;;;5.39;98.91;102775.50;5112526;28;20151;-65
2023/02/15 00:59:15;;;;;;;26.98;17.92;;;;;;;5.31;98.89;102772.88;5097854;28;20080;-64
2023/02/15 01:01:43;;;;;;;24.65;18.33;;;;;;;5.25;99.00;102774.47;5098151;28;20036;-64
2023/02/15 01:04:12;;;;;;;27.05;17.33;;;;;;;5.24;99.13;102766.53;5079344;28;20068;-65
2023/02/15 01:06:40;;;;;;;24.30;17.08;;;;;;;5.25;99.76;102762.81;5096768;28;20130;-65
2023/02/15 01:09:10;;;;;;;25.55;17.52;;;;;;;5.27;99.42;102755.38;5096298;28;20052;-64
2023/02/15 01:11:37;;;;;;;26.63;18.17;;;;;;;5.28;99.32;102751.63;5098323;27;20381;-64
2023/02/15 01:14:05;;;;;;;30.17;18.10;;;;;;;5.29;99.27;102762.28;5096740;28;20047;-64
2023/02/15 01:16:32;;;;;;;24.80;17.30;;;;;;;5.31;99.42;102753.97;5078750;28;20400;-64
2023/02/15 01:19:02;;;;;;;29.08;17.85;;;;;;;5.29;99.04;102746.06;5096692;28;20080;-64
2023/02/15 01:21:34;;;;;;;25.42;17.35;;;;;;;5.25;99.76;102752.84;5097720;27;20051;-65
2023/02/15 01:24:03;;;;;;;28.50;18.13;;;;;;;5.26;99.63;102748.28;5113713;27;20047;-64
2023/02/15 01:26:31;;;;;;;27.00;18.48;;;;;;;5.26;99.86;102743.69;5111854;28;20080;-65
2023/02/15 01:28:58;;;;;;;24.70;17.75;;;;;;;5.23;99.60;102740.53;5086585;28;20050;-64
2023/02/15 01:31:26;;;;;;;27.95;17.60;;;;;;;5.17;99.57;102744.84;5104465;28;20097;-64
2023/02/15 01:33:54;;;;;;;29.27;17.13;;;;;;;5.13;100.00;102740.81;5101674;28;20048;-63
2023/02/15 01:36:22;;;;;;;24.27;16.83;;;;;;;5.13;100.00;102733.53;5095299;28;20391;-63
2023/02/15 01:38:51;;;;;;;28.25;18.42;;;;;;;5.12;100.00;102731.88;5099135;28;20065;-64
2023/02/15 01:41:22;;;;;;;26.40;17.55;;;;;;;5.11;100.00;102740.16;5099034;27;20048;-64
2023/02/15 01:43:55;;;;;;;26.67;17.45;;;;;;;5.11;100.00;102735.59;5115666;28;20234;-64
2023/02/15 01:46:31;;;;;;;27.55;17.02;;;;;;;5.12;100.00;102736.41;5116747;28;20055;-63
2023/02/15 01:49:10;;;;;;;28.08;17.33;;;;;;;5.09;100.00;102734.09;5111162;28;20137;-64
2023/02/15 01:51:39;;;;;;;28.00;17.95;;;;;;;5.09;100.00;102737.63;5102597;27;20051;-65
2023/02/15 01:54:15;;;;;;;29.10;17.40;;;;;;;5.09;100.00;102732.22;5081054;28;20048;-64
2023/02/15 01:56:43;;;;;;;;;;;;;;;5.10;100.00;102739.31;5079005;28;20048;-63
2023/02/15 01:59:16;;;;;;;27.67;18.05;;;;;;;5.10;100.00;102731.22;5079687;28;19934;-64
2023/02/15 02:01:44;;;;;;;25.02;17.30;;;;;;;5.10;100.00;102738.50;5117277;28;20046;-63
2023/02/15 02:04:35;;;;;;;25.00;17.25;;;;;;;5.11;100.00;102730.19;5097803;27;20122;-64
2023/02/15 02:07:04;;;;;;;27.23;17.67;;;;;;;5.06;99.82;102729.91;5094527;28;20544;-65
2023/02/15 02:09:33;;;;;;;24.00;16.83;;;;;;;4.98;100.00;102718.31;5095757;28;20138;-65
2023/02/15 02:12:01;;;;;;;28.55;17.50;;;;;;;4.95;100.00;102719.53;5104753;28;20111;-65
2023/02/15 02:14:28;;;;;;;27.42;16.75;;;;;;;4.92;100.00;102709.09;5074118;28;20044;-65
2023/02/15 02:17:13;;;;;;;24.80;17.35;;;;;;;4.88;100.00;102703.25;5063475;28;20074;-65
2023/02/15 02:19:58;;;;;;;25.95;17.38;;;;;;;4.89;100.00;102706.78;5109358;28;20052;-64
2023/02/15 02:22:43;;;;;;;24.85;16.83;;;;;;;4.90;100.00;102706.56;5109817;28;20044;-64
2023/02/15 02:25:22;;;;;;;23.90;17.10;;;;;;;4.91;100.00;102707.44;5096621;27;20511;-63
2023/02/15 02:28:10;;;;;;;24.58;16.88;;;;;;;4.94;100.00;102711.63;5095536;28;20044;-65
2023/02/15 02:30:49;;;;;;;23.65;16.13;;;;;;;4.92;100.00;102709.09;5096289;28;20044;-65
2023/02/15 02:33:56;;;;;;;24.45;17.35;;;;;;;4.87;100.00;102706.94;5094507;28;20062;-65
2023/02/15 02:36:46;;;;;;;23.77;16.52;;;;;;;4.84;100.00;102714.59;5095569;28;20372;-63
2023/02/15 02:39:43;;;;;;;23.48;16.38;;;;;;;4.85;100.00;102702.75;5095217;28;20514;-64
2023/02/15 02:42:18;;;;;;;23.10;15.82;;;;;;;4.87;100.00;102701.53;5095438;28;20525;-65
2023/02/15 02:45:05;;;;;;;24.60;15.63;;;;;;;4.88;100.00;102691.56;5078761;28;20121;-65
2023/02/15 02:47:56;;;;;;;23.65;15.80;;;;;;;4.86;99.80;102690.94;5070680;28;20479;-65
2023/02/15 02:50:27;;;;;;;24.83;16.42;;;;;;;4.83;99.73;102683.19;5094234;28;20044;-65
2023/02/15 02:52:57;;;;;;;22.70;15.38;;;;;;;4.79;99.79;102687.31;5094662;28;20043;-64
2023/02/15 02:55:45;;;;;;;21.45;15.38;;;;;;;4.73;100.00;102680.75;5100520;28;20056;-63
2023/02/15 02:58:46;;;;;;;32.10;15.80;;;;;;;4.70;100.00;102684.66;5112042;28;20574;-65
2023/02/15 03:01:17;;;;;;;21.45;15.55;;;;;;;4.68;100.00;102680.47;5095598;28;20119;-64
2023/02/15 03:03:49;;;;;;;21.08;15.40;;;;;;;4.68;100.00;102670.50;5093609;28;20054;-65
2023/02/15 03:06:21;;;;;;;25.77;16.00;;;;;;;4.67;100.00;102671.53;5083979;28;20071;-65
2023/02/15 03:08:54;;;;;;;22.80;16.05;;;;;;;4.66;100.00;102672.53;5099356;28;20047;-65
2023/02/15 03:11:21;;;;;;;23.38;14.48;;;;;;;4.66;100.00;102672.53;5112181;28;20054;-64
2023/02/15 03:13:52;;;;;;;23.67;15.70;;;;;;;4.66;100.00;102669.00;5093395;28;20048;-65
2023/02/15 03:16:26;;;;;;;22.27;15.05;;;;;;;4.62;100.00;102665.84;5089598;28;20044;-64
2023/02/15 03:19:17;;;;;;;24.10;15.05;;;;;;;4.55;100.00;102664.91;5080301;28;20089;-64
2023/02/15 03:22:03;;;;;;;22.50;15.20;;;;;;;4.53;100.00;102660.72;5093399;28;20552;-63
2023/02/15 03:24:58;;;;;;;25.05;16.45;;;;;;;4.52;100.00;102662.53;5093182;28;20044;-64
2023/02/15 03:27:34;;;;;;;22.33;15.05;;;;;;;4.53;100.00;102655.31;5099263;28;20131;-65
2023/02/15 03:30:02;;;;;;;25.67;15.88;;;;;;;4.52;100.00;102659.84;5095483;28;20044;-64
2023/02/15 03:32:33;;;;;;;21.27;14.38;;;;;;;4.50;100.00;102656.50;5093034;28;20044;-64
2023/02/15 03:35:01;;;;;;;22.30;15.95;;;;;;;4.48;100.00;102650.47;5093772;28;20075;-66
2023/02/15 03:37:34;;;;;;;24.45;14.80;;;;;;;4.48;100.00;102647.75;5087811;28;20119;-63
2023/02/15 03:43:34;;;;;;;22.77;15.50;;;;;;;4.46;100.00;102637.13;5095606;28;20044;-64
2023/02/15 03:46:27;;;;;;;23.00;15.30;;;;;;;4.45;100.00;102640.88;5112131;28;20047;-63
2023/02/15 03:49:05;;;;;;;21.00;14.75;;;;;;;4.41;100.00;102636.00;5113705;28;20051;-64
2023/02/15 03:51:37;;;;;;;20.80;14.45;;;;;;;4.36;100.00;102643.81;5105807;28;20039;-63
2023/02/15 03:54:47;;;;;;;21.33;15.23;;;;;;;4.31;100.00;102624.63;5114810;28;20123;-63
2023/02/15 04:03:23;;;;;;;22.30;14.98;;;;;;;4.18;100.00;102626.06;5130151;28;20073;-63
2023/02/15 04:05:50;;;;;;;23.35;14.70;;;;;;;4.16;100.00;102622.72;5119027;28;20053;-65
2023/02/15 04:08:18;;;;;;;24.65;15.70;;;;;;;4.16;100.00;102622.72;5125762;28;20047;-58
2023/02/15 04:10:52;;;;;;;21.90;15.45;;;;;;;4.16;100.00;102619.16;5128613;28;20039;-62
2023/02/15 04:13:29;;;;;;;24.33;16.02;;;;;;;4.10;100.00;102625.31;5105464;28;20048;-64
2023/02/15 04:16:02;;;;;;;22.35;15.50;;;;;;;4.08;100.00;102625.47;5097539;28;20048;-64
2023/02/15 04:26:53;;;;;;;22.80;15.35;;;;;;;3.99;100.00;102637.34;5112962;28;20066;-64
2023/02/15 04:29:22;;;;;;;24.80;14.82;;;;;;;4.00;100.00;102626.38;5101010;28;20052;-63
2023/02/15 04:31:51;;;;;;;23.67;15.73;;;;;;;4.01;100.00;102624.50;5079971;28;20035;-63
2023/02/15 04:34:19;;;;;;;25.65;15.30;;;;;;;4.01;100.00;102630.75;5105202;28;20047;-64
2023/02/15 04:36:46;;;;;;;21.58;15.27;;;;;;;3.97;100.00;102628.59;5103909;28;20048;-63
2023/02/15 04:39:16;;;;;;;22.88;15.45;;;;;;;3.96;100.00;102633.16;5101482;28;20051;-64
2023/02/15 04:41:44;;;;;;;22.65;15.02;;;;;;;3.97;100.00;102620.50;5094743;28;20051;-64
2023/02/15 04:44:12;;;;;;;21.98;15.57;;;;;;;3.99;100.00;102621.16;5093098;28;20068;-63
2023/02/15 04:46:39;;;;;;;22.83;14.85;;;;;;;4.00;100.00;102618.28;5097890;28;20050;-63
2023/02/15 04:49:09;;;;;;;21.92;15.88;;;;;;;4.04;100.00;102616.91;5112576;28;20044;-65
2023/02/15 04:51:38;;;;;;;23.80;15.88;;;;;;;4.00;100.00;102621.00;5097491;28;20044;-64
2023/02/15 04:54:06;;;;;;;26.05;16.02;;;;;;;3.93;100.00;102614.63;5095330;28;20109;-64
2023/02/15 04:56:34;;;;;;;22.48;15.60;;;;;;;3.87;100.00;102617.19;5092493;28;20044;-64
2023/02/15 04:59:02;;;;;;;25.70;16.00;;;;;;;3.82;100.00;102607.81;5103487;28;20051;-64
2023/02/15 05:01:30;;;;;;;22.35;15.60;;;;;;;3.80;100.00;102612.53;5111597;28;20072;-66
2023/02/15 05:03:58;;;;;;;23.55;15.73;;;;;;;3.80;100.00;102601.75;5104159;28;20083;-66
2023/02/15 05:06:25;;;;;;;22.15;15.55;;;;;;;3.83;100.00;102601.38;5093261;28;20040;-65
2023/02/15 05:08:53;;;;;;;21.42;15.20;;;;;;;3.84;100.00;102597.66;5101366;28;20047;-65
2023/02/15 05:11:21;;;;;;;22.25;15.95;;;;;;;3.81;100.00;102598.03;5111092;28;20475;-66
2023/02/15 05:13:48;;;;;;;22.50;16.65;;;;;;;3.78;100.00;102598.41;5107036;28;20059;-64
2023/02/15 05:16:16;;;;;;;27.40;16.10;;;;;;;3.76;100.00;102589.66;5093919;28;20122;-65
2023/02/15 05:18:44;;;;;;;25.20;15.90;;;;;;;3.77;100.00;102588.63;5083739;28;20042;-64
2023/02/15 05:21:13;;;;;;;28.63;16.60;;;;;;;3.70;100.00;102598.44;5114962;28;20100;-65
2023/02/15 05:23:41;;;;;;;24.52;16.40;;;;;;;3.69;100.00;102599.47;5113551;28;20051;-65
2023/02/15 05:28:58;;;;;;;25.67;16.60;;;;;;;3.75;100.00;102582.59;5094721;28;20399;-65
2023/02/15 05:31:25;;;;;;;27.70;16.50;;;;;;;3.79;100.00;102594.66;5096102;28;20059;-65
2023/02/15 05:33:53;;;;;;;28.20;17.25;;;;;;;3.86;100.00;102589.41;5103109;28;20043;-64
2023/02/15 05:36:22;;;;;;;28.15;17.92;;;;;;;3.92;100.00;102593.22;5108638;28;20051;-64
2023/02/15 05:38:50;;;;;;;26.58;16.88;;;;;;;3.97;100.00;102588.13;5113420;28;20126;-65
2023/02/15 05:41:17;;;;;;;28.55;17.60;;;;;;;3.99;100.00;102595.06;5115558;28;20092;-65
2023/02/15 05:43:45;;;;;;;29.23;19.35;;;;;;;3.89;100.00;102593.59;5112257;28;20039;-64
2023/02/15 05:46:13;;;;;;;28.15;19.08;;;;;;;3.83;100.00;102598.69;5096038;28;20059;-64
2023/02/15 05:48:41;;;;;;;34.00;19.63;;;;;;;3.78;100.00;102586.78;5114599;27;20044;-64
2023/02/15 05:51:16;;;;;;;31.20;19.25;;;;;;;3.74;100.00;102591.66;5119198;28;20047;-63
2023/02/15 05:53:44;;;;;;;31.38;19.30;;;;;;;3.73;100.00;102591.84;5110510;28;20453;-64
2023/02/15 05:56:12;;;;;;;28.20;19.13;;;;;;;3.79;100.00;102589.28;5095173;28;20496;-64
2023/02/15 05:58:41;;;;;;;29.30;18.30;;;;;;;3.87;100.00;102592.94;5108678;27;20110;-64
2023/02/15 06:01:10;;;;;;;28.98;19.10;;;;;;;3.90;100.00;102595.28;5118238;27;20047;-65
2023/02/15 06:03:40;;;;;;;26.17;18.27;;;;;;;3.90;100.00;102593.44;5117972;27;20046;-64
2023/02/15 06:06:08;;;;;;;28.35;18.48;;;;;;;3.89;100.00;102588.22;5111188;28;20372;-63
2023/02/15 06:08:36;;;;;;;25.38;17.67;;;;;;;3.88;100.00;102586.53;5098456;27;20542;-63
2023/02/15 06:11:05;;;;;;;27.52;18.33;;;;;;;3.84;100.00;102594.97;5101024;28;20052;-64
2023/02/15 06:13:33;;;;;;;26.25;18.77;;;;;;;3.82;100.00;102597.03;5096202;28;20055;-64
2023/02/15 06:16:05;;;;;;;28.00;18.35;;;;;;;3.79;100.00;102599.22;5095252;28;20492;-63
2023/02/15 06:18:34;;;;;;;26.30;17.55;;;;;;;3.77;100.00;102595.88;5107848;28;20134;-64
2023/02/15 06:21:02;;;;;;;27.85;18.75;;;;;;;3.75;100.00;102598.75;5092620;28;20105;-63
2023/02/15 06:23:29;;;;;;;27.77;18.48;;;;;;;3.75;100.00;102604.16;5109345;28;20094;-63
2023/02/15 06:25:57;;;;;;;28.83;18.35;;;;;;;3.75;100.00;102604.16;5115903;28;20047;-62
2023/02/15 06:28:25;;;;;;;29.88;19.08;;;;;;;3.74;100.00;102597.06;5113860;28;20046;-63
2023/02/15 06:30:53;;;;;;;30.75;19.67;;;;;;;3.74;100.00;102590.84;5105004;27;20047;-64
2023/02/15 06:33:21;;;;;;;30.17;19.17;;;;;;;3.74;100.00;102591.66;5113720;28;20040;-63
2023/02/15 06:35:49;;;;;;;30.60;19.27;;;;;;;3.73;100.00;102598.09;5097377;28;20398;-64
2023/02/15 06:38:17;;;;;;;28.00;19.15;;;;;;;3.73;100.00;102595.41;5110849;28;20054;-63
2023/02/15 06:40:45;;;;;;;27.00;18.42;;;;;;;3.73;100.00;102584.63;5100340;28;20462;-65
2023/02/15 06:43:12;;;;;;;27.77;19.88;;;;;;;3.74;100.00;102591.66;5100341;28;20054;-64
2023/02/15 06:45:40;;;;;;;29.88;18.92;;;;;;;3.74;100.00;102597.06;5094763;28;20385;-64
2023/02/15 06:48:08;;;;;;;26.90;18.85;;;;;;;3.73;100.00;102591.84;5106638;28;20392;-64
2023/02/15 06:50:36;;;;;;;30.13;19.92;;;;;;;3.71;100.00;102592.03;5114666;28;20055;-65
2023/02/15 06:53:03;;;;;;;29.90;20.00;;;;;;;3.70;100.00;102584.94;5090502;28;20044;-63
2023/02/15 06:55:31;;;;;;;30.25;19.80;;;;;;;3.69;100.00;102587.84;5113914;28;20088;-61
2023/02/15 06:57:58;;;;;;;27.55;18.75;;;;;;;3.70;100.00;102584.94;5114967;28;20491;-63
2023/02/15 07:00:26;;;;;;;31.75;19.83;;;;;;;3.71;100.00;102592.03;5098647;28;20123;-62
2023/02/15 07:02:58;;;;;;;28.55;19.33;;;;;;;3.70;100.00;102593.03;5094997;28;20423;-62
2023/02/15 07:05:30;;;;;;;27.38;19.00;;;;;;;3.71;100.00;102586.66;5081421;28;20079;-64
2023/02/15 07:07:59;;;;;;;31.75;20.42;;;;;;;3.70;100.00;102578.72;5093213;28;20540;-63
2023/02/15 07:10:28;;;;;;;28.63;19.05;;;;;;;3.69;100.00;102577.91;5103108;28;20056;-64
2023/02/15 07:12:55;;;;;;;30.02;19.73;;;;;;;3.67;100.00;102573.69;5083851;28;20465;-65
2023/02/15 07:15:23;;;;;;;27.35;19.77;;;;;;;3.69;100.00;102577.91;5079457;28;20104;-65
2023/02/15 07:17:51;;;;;;;27.52;19.90;;;;;;;3.71;100.00;102570.47;5093893;28;20044;-64
2023/02/15 07:20:22;;;;;;;30.92;20.35;;;;;;;3.74;100.00;102567.41;5097936;28;20509;-64
2023/02/15 07:22:55;;;;;;;29.02;20.63;;;;;;;3.77;100.00;102564.34;4884024;27;10000450;-64
2023/02/15 07:25:24;;;;;;;31.90;19.58;;;;;;;3.77;100.00;102563.50;5110129;28;20295;-64
2023/02/15 07:27:59;;;;;;;30.05;19.83;;;;;;;3.76;100.00;102562.69;5110758;28;20051;-63
2023/02/15 07:30:28;;;;;;;26.55;19.40;;;;;;;3.77;100.00;102561.66;5107848;28;20104;-64
2023/02/15 07:35:50;;;;;;;30.15;21.10;;;;;;;3.75;100.00;102560.16;5082570;28;20487;-64
2023/02/15 07:38:18;;;;;;;31.80;20.73;;;;;;;3.74;100.00;102567.41;5072719;28;20052;-64
2023/02/15 07:40:45;;;;;;;30.83;20.25;;;;;;;3.77;100.00;102567.03;5089640;28;20056;-65
2023/02/15 07:43:14;;;;;;;31.40;21.08;;;;;;;3.80;100.00;102566.72;5108803;28;20085;-65
2023/02/15 07:45:41;;;;;;;28.88;20.45;;;;;;;3.81;100.00;102571.06;5093603;27;20054;-64
2023/02/15 07:48:09;;;;;;;33.50;21.42;;;;;;;3.81;100.00;102565.69;5090062;28;20046;-65
2023/02/15 07:50:37;;;;;;;32.17;21.48;;;;;;;3.84;100.00;102561.78;5099214;28;20537;-63
2023/02/15 07:53:04;;;;;;;32.72;20.92;;;;;;;3.87;100.00;102558.72;5113095;28;20028;-64
2023/02/15 07:55:32;;;;;;;31.50;21.15;;;;;;;3.87;100.00;102558.72;5111246;28;20142;-65
2023/02/15 07:58:00;;;;;;;31.60;21.70;;;;;;;3.91;100.00;102559.22;5099132;28;20052;-65
2023/02/15 08:00:29;;;;;;;32.55;20.35;;;;;;;3.93;100.00;102552.59;5103901;28;20555;-60
2023/02/15 08:03:15;;;;;;;33.63;19.05;;;;;;;3.96;100.00;102556.81;5089676;28;20521;-59
2023/02/15 08:05:44;;;;;;;34.13;21.17;;;;;;;3.97;100.00;102553.06;5114660;27;20400;-62
2023/02/15 08:08:31;;;;;;;34.10;23.17;;;;;;;3.89;100.00;102550.44;5106600;28;20059;-63
2023/02/15 08:11:32;;;;;;;33.25;23.08;;;;;;;3.92;100.00;102550.09;5079230;28;20056;-62
2023/02/15 08:14:07;;;;;;;36.95;23.60;;;;;;;3.89;100.00;102545.06;5113470;28;20043;-62
2023/02/15 08:16:49;;;;;;;34.58;23.67;;;;;;;3.86;100.00;102548.13;5114231;28;20509;-62
2023/02/15 08:19:22;;;;;;;33.47;22.73;;;;;;;3.88;100.00;102544.22;5114370;28;20052;-63
2023/02/15 08:22:02;;;;;;;33.85;21.95;;;;;;;3.93;100.00;102543.69;5109255;28;20145;-64
2023/02/15 08:24:32;;;;;;;34.42;23.33;;;;;;;3.96;100.00;102536.06;5093616;28;20044;-63
2023/02/15 08:27:02;;;;;;;31.65;22.20;;;;;;;4.01;100.00;102549.00;5093528;28;20044;-63
2023/02/15 08:29:34;;;;;;;33.10;22.40;;;;;;;4.04;100.00;102544.09;5093539;28;20050;-65
2023/02/15 08:32:05;;;;;;;33.85;21.83;;;;;;;4.08;100.00;102538.31;5093977;28;20044;-63
2023/02/15 08:34:36;;;;;;;36.90;23.30;;;;;;;4.05;100.00;102537.66;5097701;28;20036;-63
2023/02/15 08:37:05;;;;;;;34.10;24.10;;;;;;;4.02;100.00;102537.22;5113191;28;20051;-62
2023/02/15 08:39:33;;;;;;;36.75;24.08;;;;;;;4.04;100.00;102538.69;5114840;28;20047;-62
2023/02/15 08:42:01;;;;;;;33.67;23.15;;;;;;;4.05;100.00;102536.84;5094945;28;20115;-64
2023/02/15 08:44:29;;;;;;;33.45;23.92;;;;;;;4.03;100.00;102531.63;5110983;28;20044;-63
2023/02/15 08:47:03;;;;;;;33.67;22.42;;;;;;;4.05;100.00;102539.53;5117101;28;20052;-64
2023/02/15 08:49:31;;;;;;;31.13;21.23;;;;;;;4.05;100.00;102531.44;5105992;27;20036;-64
2023/02/15 08:51:59;;;;;;;35.40;23.20;;;;;;;4.05;100.00;102520.66;5098870;28;20048;-61
2023/02/15 08:54:27;;;;;;;34.42;22.63;;;;;;;4.05;100.00;102515.25;5097971;27;20052;-64
2023/02/15 08:56:54;;;;;;;34.38;23.98;;;;;;;4.08;100.00;102525.66;5105681;27;20510;-63
2023/02/15 08:59:23;;;;;;;33.60;23.10;;;;;;;4.10;100.00;102514.72;5108371;27;20043;-62
2023/02/15 09:01:52;;;;;;;32.15;23.15;;;;;;;4.11;100.00;102517.22;5101320;28;20060;-61
2023/02/15 09:04:22;;;;;;;29.92;21.50;;;;;;;4.20;100.00;102521.50;5096519;28;20079;-64
2023/02/15 09:06:50;;;;;;;33.33;22.08;;;;;;;4.24;100.00;102520.13;5080523;28;20044;-62
2023/02/15 09:09:19;;;;;;;35.00;23.00;;;;;;;4.29;100.00;102518.75;5083653;28;20078;-62
2023/02/15 09:11:49;;;;;;;30.48;21.52;;;;;;;4.32;100.00;102526.47;5094842;27;20414;-62
2023/02/15 09:14:25;;;;;;;31.00;22.45;;;;;;;4.30;100.00;102517.72;5097217;27;20105;-63
2023/02/15 09:16:54;;;;;;;34.28;22.92;;;;;;;4.35;100.00;102513.44;5104101;27;20031;-64
2023/02/15 09:19:23;;;;;;;33.20;23.48;;;;;;;4.37;100.00;102515.94;5086019;28;20052;-64
2023/02/15 09:21:51;;;;;;;32.50;23.27;;;;;;;4.36;100.00;102515.13;5090327;27;20058;-64
2023/02/15 09:24:19;;;;;;;37.30;25.58;;;;;;;4.36;100.00;102516.97;5117204;28;20069;-64
2023/02/15 09:26:48;;;;;;;32.13;23.42;;;;;;;4.38;100.00;102517.66;5116952;28;20055;-65
2023/02/15 09:29:17;;;;;;;33.17;21.85;;;;;;;4.39;100.00;102508.50;5115243;27;20040;-65
2023/02/15 09:31:46;;;;;;;34.03;24.25;;;;;;;4.40;100.00;102512.88;5099953;28;20079;-63
2023/02/15 09:34:16;;;;;;;34.88;22.75;;;;;;;4.43;100.00;102515.22;5098297;28;20473;-63
2023/02/15 09:36:45;;;;;;;32.15;23.70;;;;;;;4.45;100.00;102508.63;5115994;28;20052;-63
2023/02/15 09:39:16;;;;;;;36.47;24.52;;;;;;;4.47;100.00;102508.41;5116064;27;20054;-63
2023/02/15 09:41:47;;;;;;;31.98;23.73;;;;;;;4.50;100.00;102505.38;5101563;28;20052;-63
2023/02/15 09:44:36;;;;;;;35.30;24.83;;;;;;;4.54;100.00;102501.25;5105732;27;20096;-64
2023/02/15 09:47:19;;;;;;;34.22;23.92;;;;;;;4.58;100.00;102499.03;5105007;27;20047;-62
2023/02/15 09:50:02;;;;;;;37.38;25.58;;;;;;;4.62;100.00;102492.25;5097838;28;20048;-65
2023/02/15 09:53:01;;;;;;;31.08;22.35;;;;;;;4.67;100.00;102496.03;5111023;28;20050;-62
2023/02/15 09:55:31;;;;;;;37.22;24.08;;;;;;;4.73;100.00;102486.34;5096566;28;20052;-61
2023/02/15 09:58:15;;;;;;;33.47;24.48;;;;;;;4.76;100.00;102498.63;5115040;28;20046;-63
2023/02/15 10:01:14;;;;;;;34.38;23.45;;;;;;;4.79;100.00;102493.69;5101631;28;20051;-64
2023/02/15 10:04:07;;;;;;;32.30;23.65;;;;;;;4.84;100.00;102491.28;5097224;27;20118;-63
2023/02/15 10:06:48;;;;;;;31.80;23.75;;;;;;;4.90;100.00;102492.38;5107549;27;20051;-65
2023/02/15 10:09:40;;;;;;;38.80;24.77;;;;;;;4.93;100.00;102500.13;5103459;27;20044;-64
2023/02/15 10:12:13;;;;;;;36.55;26.50;;;;;;;4.95;100.00;102502.59;5100368;28;20055;-64
2023/02/15 10:15:11;;;;;;;38.40;26.25;;;;;;;4.97;100.00;102501.38;5114228;27;20046;-63
2023/02/15 10:18:03;;;;;;;37.33;27.13;;;;;;;5.01;100.00;102502.69;5107044;28;20507;-64
2023/02/15 10:20:53;;;;;;;37.25;26.65;;;;;;;5.05;100.00;102495.03;5115235;27;20067;-63
2023/02/15 10:23:20;;;;;;;32.13;18.98;;;;;;;5.11;100.00;102492.41;5094390;28;20040;-63
2023/02/15 10:26:05;;;;;;;34.13;24.17;;;;;;;5.19;100.00;102504.97;5110859;28;20131;-65
2023/02/15 10:28:56;;;;;;;38.08;26.30;;;;;;;5.25;100.00;102495.28;5095558;28;20044;-64
2023/02/15 10:31:41;;;;;;;35.72;25.52;;;;;;;5.30;100.00;102501.78;5091142;28;20047;-64
2023/02/15 10:34:19;;;;;;;43.47;28.65;;;;;;;5.40;100.00;102503.34;5102484;28;20036;-64
2023/02/15 10:37:08;;;;;;;41.20;27.40;;;;;;;5.43;100.00;102502.94;5097220;28;20044;-67
2023/02/15 10:39:54;;;;;;;30.17;21.08;;;;;;;5.51;100.00;102508.25;5113865;28;20048;-64
2023/02/15 10:42:40;;;;;;;32.85;20.10;;;;;;;5.64;100.00;102497.53;5111330;28;20044;-67
2023/02/15 10:45:24;;;;;;;30.58;20.55;;;;;;;5.78;100.00;102495.78;5107278;28;20408;-64
2023/02/15 10:48:28;;;;;;;33.88;23.25;;;;;;;5.89;100.00;102492.56;5085645;27;20788;-65
2023/02/15 10:51:04;;;;;;;30.40;21.45;;;;;;;5.90;100.00;102494.22;5104865;27;20510;-64
2023/02/15 10:53:34;;;;;;;36.53;27.17;;;;;;;5.85;100.00;102498.56;5101255;27;20044;-64
2023/02/15 10:56:28;;;;;;;38.25;27.20;;;;;;;5.85;100.00;102491.28;5097840;28;20053;-65
2023/02/15 10:59:27;;;;;;;40.75;27.00;;;;;;;5.87;100.00;102486.53;5103744;28;20060;-65
2023/02/15 11:02:06;;;;;;;38.50;26.23;;;;;;;5.92;100.00;102483.22;5102748;27;20120;-64
2023/02/15 11:04:55;;;;;;;42.15;27.40;;;;;;;5.95;100.00;102475.56;5096750;28;20056;-64
2023/02/15 11:07:32;;;;;;;41.67;27.35;;;;;;;6.00;100.00;102474.16;5109761;28;20104;-66
2023/02/15 11:10:05;;;;;;;37.38;26.02;;;;;;;6.05;100.00;102472.53;5095932;28;20040;-64
2023/02/15 11:12:33;;;;;;;40.22;26.80;;;;;;;6.08;100.00;102465.88;5107651;28;20046;-65
2023/02/15 11:15:11;;;;;;;45.35;27.02;;;;;;;6.14;100.00;102470.50;5096864;28;20044;-64
2023/02/15 11:17:50;;;;;;;41.67;27.55;;;;;;;6.19;100.00;102468.03;5043924;28;20085;-65
2023/02/15 11:20:27;;;;;;;42.00;27.75;;;;;;;6.24;100.00;102475.56;5076912;28;20044;-66
2023/02/15 11:22:55;;;;;;;41.90;26.70;;;;;;;6.32;100.00;102472.69;5100017;27;20071;-66
2023/02/15 11:25:22;;;;;;;41.72;27.30;;;;;;;6.36;100.00;102472.09;5108889;28;20059;-66
2023/02/15 11:27:50;;;;;;;40.40;27.75;;;;;;;6.39;100.00;102468.16;5111341;27;20406;-66
2023/02/15 11:30:23;;;;;;;39.08;27.05;;;;;;;6.42;100.00;102470.47;5113605;27;20059;-67
2023/02/15 11:32:54;;;;;;;43.40;27.35;;;;;;;6.44;100.00;102465.69;5112764;28;20468;-65
2023/02/15 11:35:32;;;;;;;41.03;26.17;;;;;;;6.51;100.00;102453.03;5089460;28;20044;-67
2023/02/15 11:38:26;;;;;;;33.50;22.25;;;;;;;6.60;100.00;102453.69;5096087;28;20048;-67
2023/02/15 11:40:56;;;;;;;36.17;22.00;;;;;;;6.70;100.00;102448.72;5085793;28;20491;-66
2023/02/15 11:43:38;;;;;;;37.53;23.92;;;;;;;6.72;100.00;102435.81;4720520;28;10000321;-66
2023/02/15 11:46:06;;;;;;;31.73;19.08;;;;;;;6.78;100.00;102443.16;5124614;28;20048;-66
2023/02/15 11:48:34;;;;;;;33.17;19.45;;;;;;;6.82;100.00;102438.97;5078218;28;20445;-67
2023/02/15 11:51:02;;;;;;;32.22;20.48;;;;;;;6.89;100.00;102425.47;5093295;27;20040;-68
2023/02/15 11:53:33;;;;;;;37.20;21.38;;;;;;;6.92;100.00;102416.91;5088456;28;20054;-67
2023/02/15 11:56:03;;;;;;;31.33;19.63;;;;;;;6.91;100.00;102415.25;5122560;27;20295;-66
2023/02/15 11:59:03;;;;;;;36.08;22.35;;;;;;;6.90;99.29;102410.03;5105744;28;20040;-69